Weather at John F Kennedy International Airport

Public forecast

Using degrees Fahrenheit for public forecast. Weather courtesy of forecast.io.

Current aviation weather report (METAR) for John F Kennedy International Airport

Retrieved 2022/05/19 07:51 UTC (1 hour ago):

KJFK 190751Z 20006KT 6SM +RA BR BKN048 OVC090 13/12 A2985 RMK SLP109 P0008 T01330117

Aviation forecast (TAF) for John F Kennedy International Airport

Retrieved 2022/05/19 06:24 UTC (3 hours ago):

TAF KJFK 190523Z 1906/2012 15004KT 6SM -SHRA BKN090 OVC110 FM190800 18006KT 5SM -SHRA SCT012 OVC020 FM191000 17010KT 2SM -RA BR OVC008 FM191200 14012KT 3SM -SHRA BR OVC006 FM191500 11010KT 5SM BR OVC009 FM191800 32008KT P6SM BKN020 FM192100 29008KT P6SM SCT030 SCT050 FM200000 18007KT P6SM SCT050